createdAt,value
2019-01-12T00:01:11.226Z,4.20
2019-01-12T00:04:15.590Z,3.63
2019-01-12T00:07:19.900Z,3.53
2019-01-12T00:10:24.141Z,4.10
2019-01-12T00:13:28.460Z,3.37
2019-01-12T00:16:32.785Z,2.93
2019-01-12T00:19:37.094Z,3.63
2019-01-12T00:22:41.366Z,3.60
2019-01-12T00:25:45.670Z,3.83
2019-01-12T00:28:49.916Z,4.00
2019-01-12T00:31:54.230Z,3.77
2019-01-12T00:34:58.585Z,3.13
2019-01-12T00:38:02.867Z,3.00
2019-01-12T00:41:07.169Z,3.20
2019-01-12T00:44:11.459Z,3.50
2019-01-12T00:47:15.728Z,3.20
2019-01-12T00:50:20.244Z,2.80
2019-01-12T00:53:24.489Z,3.60
2019-01-12T00:56:28.792Z,3.30
2019-01-12T00:59:33.115Z,3.00
2019-01-12T01:02:37.389Z,3.03
2019-01-12T01:05:41.666Z,3.00
2019-01-12T01:08:45.995Z,3.67
2019-01-12T01:11:50.214Z,3.20
2019-01-12T01:14:54.576Z,3.27
2019-01-12T01:17:58.862Z,3.57
2019-01-12T01:21:03.151Z,4.27
2019-01-12T01:24:07.470Z,3.10
2019-01-12T01:27:11.826Z,3.13
2019-01-12T01:30:20.424Z,2.70
2019-01-12T01:33:28.021Z,2.67
2019-01-12T01:36:30.779Z,2.60
2019-01-12T01:39:35.065Z,2.20
2019-01-12T01:42:39.424Z,2.40
2019-01-12T01:45:43.769Z,2.17
2019-01-12T01:48:48.020Z,1.90
2019-01-12T01:51:52.455Z,2.13
2019-01-12T01:54:56.749Z,1.80
2019-01-12T01:58:01.090Z,2.10
2019-01-12T02:01:05.783Z,1.70
2019-01-12T02:04:10.056Z,1.87
2019-01-12T02:07:14.369Z,1.30
2019-01-12T02:10:22.876Z,1.37
2019-01-12T02:13:27.191Z,1.37
2019-01-12T02:16:31.446Z,1.60
2019-01-12T02:19:35.750Z,1.10
2019-01-12T02:22:39.986Z,1.50
2019-01-12T02:25:44.263Z,1.53
2019-01-12T02:28:48.515Z,1.50
2019-01-12T02:31:52.836Z,2.00
2019-01-12T02:34:57.134Z,1.90
2019-01-12T02:38:01.378Z,2.37
2019-01-12T02:41:05.672Z,2.30
2019-01-12T02:44:10.003Z,2.83
2019-01-12T02:47:14.255Z,2.47
2019-01-12T02:50:18.662Z,2.20
2019-01-12T02:53:22.954Z,2.17
2019-01-12T02:56:27.290Z,2.30
2019-01-12T02:59:31.639Z,2.60
2019-01-12T03:02:35.989Z,2.20
2019-01-12T03:05:40.301Z,2.57
2019-01-12T03:08:44.668Z,2.63
2019-01-12T03:11:49.003Z,2.43
2019-01-12T03:14:53.328Z,2.80
2019-01-12T03:17:57.627Z,2.17
2019-01-12T03:21:01.979Z,2.60
2019-01-12T03:24:06.405Z,2.40
2019-01-12T03:27:10.677Z,2.70
2019-01-12T03:30:19.124Z,2.23
2019-01-12T03:33:23.408Z,2.17
2019-01-12T03:36:27.793Z,2.50
2019-01-12T03:39:32.032Z,2.60
2019-01-12T03:42:36.376Z,2.50
2019-01-12T03:45:40.693Z,2.63
2019-01-12T03:48:44.994Z,2.67
2019-01-12T03:51:49.269Z,2.70
2019-01-12T03:54:53.610Z,2.90
2019-01-12T03:57:57.905Z,2.90
2019-01-12T04:01:02.281Z,2.80
2019-01-12T04:04:06.616Z,2.80
2019-01-12T04:07:10.977Z,2.70
2019-01-12T04:10:15.308Z,2.60
2019-01-12T04:13:19.598Z,2.47
2019-01-12T04:16:23.876Z,2.53
2019-01-12T04:19:28.234Z,2.80
2019-01-12T04:22:32.553Z,3.10
2019-01-12T04:25:36.814Z,2.80
2019-01-12T04:28:41.151Z,2.83
2019-01-12T04:31:45.513Z,2.33
2019-01-12T04:34:49.874Z,2.80
2019-01-12T04:37:54.232Z,3.20
2019-01-12T04:40:58.500Z,3.03
2019-01-12T04:44:02.817Z,3.20
2019-01-12T04:47:07.162Z,3.90
2019-01-12T04:50:13.955Z,2.53
2019-01-12T04:53:18.257Z,3.17
2019-01-12T04:56:22.581Z,2.67
2019-01-12T04:59:26.876Z,3.10
2019-01-12T05:02:31.221Z,2.70
2019-01-12T05:05:35.520Z,2.40
2019-01-12T05:08:39.814Z,2.63
2019-01-12T05:11:44.118Z,2.70
2019-01-12T05:14:48.401Z,2.90
2019-01-12T05:17:52.679Z,2.70
2019-01-12T05:20:56.929Z,2.60
2019-01-12T05:24:01.219Z,3.03
2019-01-12T05:27:05.511Z,2.90
2019-01-12T05:30:12.530Z,3.17
2019-01-12T05:33:16.828Z,3.13
2019-01-12T05:36:21.263Z,3.30
2019-01-12T05:39:25.567Z,2.50
2019-01-12T05:42:30.015Z,3.40
2019-01-12T05:45:34.391Z,3.00
2019-01-12T05:48:38.743Z,3.03
2019-01-12T05:51:43.097Z,3.30
2019-01-12T05:54:47.425Z,3.00
2019-01-12T05:57:51.699Z,3.73
2019-01-12T06:00:56.103Z,2.60
2019-01-12T06:04:00.408Z,2.70
2019-01-12T06:07:04.764Z,2.70
2019-01-12T06:10:09.376Z,2.80
2019-01-12T06:13:13.624Z,3.03
2019-01-12T06:16:17.928Z,2.80
2019-01-12T06:19:22.302Z,2.70
2019-01-12T06:22:26.557Z,2.20
2019-01-12T06:25:30.832Z,2.90
2019-01-12T06:28:35.093Z,2.57
2019-01-12T06:31:39.387Z,3.00
2019-01-12T06:34:43.712Z,2.60
2019-01-12T06:37:48.185Z,2.40
2019-01-12T06:40:52.574Z,2.90
2019-01-12T06:43:56.822Z,2.77
2019-01-12T06:47:01.115Z,2.33
2019-01-12T06:50:06.817Z,2.70
2019-01-12T06:53:11.184Z,2.37
2019-01-12T06:56:15.479Z,3.30
2019-01-12T06:59:19.793Z,3.17
2019-01-12T07:02:24.157Z,2.80
2019-01-12T07:05:28.749Z,2.40
2019-01-12T07:08:33.012Z,2.80
2019-01-12T07:11:37.394Z,3.03
2019-01-12T07:14:41.774Z,2.80
2019-01-12T07:17:46.162Z,2.80
2019-01-12T07:20:50.668Z,2.60
2019-01-12T07:23:55.053Z,3.30
2019-01-12T07:26:59.420Z,3.33
2019-01-12T07:30:05.069Z,3.47
2019-01-12T07:33:09.368Z,3.77
2019-01-12T07:36:13.668Z,4.20
2019-01-12T07:39:17.914Z,4.30
2019-01-12T07:42:22.231Z,4.13
2019-01-12T07:45:26.584Z,5.73
2019-01-12T07:48:30.850Z,5.50
2019-01-12T07:51:35.167Z,6.20
2019-01-12T07:54:39.493Z,6.00
2019-01-12T07:57:43.797Z,6.40
2019-01-12T08:00:48.138Z,6.23
2019-01-12T08:03:52.522Z,6.50
2019-01-12T08:06:56.771Z,5.90
2019-01-12T08:10:01.089Z,6.57
2019-01-12T08:13:05.385Z,6.50
2019-01-12T08:16:09.652Z,5.90
2019-01-12T08:19:14.003Z,6.10
2019-01-12T08:22:18.334Z,6.43
2019-01-12T08:25:22.668Z,6.60
2019-01-12T08:28:26.959Z,7.00
2019-01-12T08:31:31.459Z,7.00
2019-01-12T08:34:35.757Z,6.60
2019-01-12T08:37:40.048Z,6.93
2019-01-12T08:40:44.329Z,7.33
2019-01-12T08:43:48.649Z,7.50
2019-01-12T08:46:52.964Z,8.07
2019-01-12T08:49:57.279Z,8.30
2019-01-12T08:53:01.592Z,8.37
2019-01-12T08:56:06.033Z,9.80
2019-01-12T08:59:10.358Z,7.87
2019-01-12T09:02:14.679Z,8.40
2019-01-12T09:05:19.107Z,8.20
2019-01-12T09:08:23.475Z,9.00
2019-01-12T09:11:27.803Z,8.50
2019-01-12T09:14:32.149Z,8.57
2019-01-12T09:17:36.398Z,8.60
2019-01-12T09:20:40.679Z,8.20
2019-01-12T09:23:45.028Z,9.30
2019-01-12T09:26:49.319Z,10.00
2019-01-12T09:29:53.700Z,10.03
2019-01-12T09:32:57.984Z,9.50
2019-01-12T09:36:02.299Z,10.57
2019-01-12T09:39:09.008Z,10.97
2019-01-12T09:42:13.302Z,10.23
2019-01-12T09:45:18.077Z,12.07
2019-01-12T09:48:22.452Z,10.93
2019-01-12T09:51:26.839Z,11.40
2019-01-12T09:54:31.237Z,11.77
2019-01-12T09:57:35.569Z,11.73
2019-01-12T10:00:39.899Z,12.40
2019-01-12T10:03:44.284Z,12.60
2019-01-12T10:06:48.652Z,12.17
2019-01-12T10:09:53.009Z,14.27
2019-01-12T10:12:57.313Z,13.17
2019-01-12T10:16:01.629Z,14.97
2019-01-12T10:19:05.893Z,15.43
2019-01-12T10:22:10.308Z,16.00
2019-01-12T10:25:15.157Z,14.87
2019-01-12T10:28:19.492Z,15.80
2019-01-12T10:31:23.789Z,16.47
2019-01-12T10:34:28.123Z,16.57
2019-01-12T10:37:32.392Z,17.13
2019-01-12T10:40:36.689Z,16.70
2019-01-12T10:43:41.024Z,16.67
2019-01-12T10:46:46.233Z,17.47
2019-01-12T10:49:50.473Z,17.47
2019-01-12T10:52:56.402Z,18.60
2019-01-12T10:56:00.818Z,18.33
2019-01-12T10:59:06.248Z,19.30
2019-01-12T11:02:10.569Z,19.20
2019-01-12T11:05:15.034Z,19.03
2019-01-12T11:08:19.345Z,19.00
2019-01-12T11:11:23.627Z,19.43
2019-01-12T11:14:27.972Z,19.03
2019-01-12T11:17:32.243Z,19.23
2019-01-12T11:20:36.647Z,18.27
2019-01-12T11:23:40.951Z,18.03
2019-01-12T11:26:45.307Z,19.40
2019-01-12T11:29:49.609Z,19.23
2019-01-12T11:32:53.925Z,18.00
2019-01-12T11:35:58.244Z,16.20
2019-01-12T11:39:02.613Z,12.37
2019-01-12T11:42:06.940Z,14.50
2019-01-12T11:45:11.364Z,15.63
2019-01-12T11:48:15.678Z,14.27
2019-01-12T11:51:20.025Z,15.63
2019-01-12T11:54:24.296Z,14.67
2019-01-12T11:57:28.582Z,15.67
2019-01-12T12:00:32.945Z,15.77
2019-01-12T12:03:37.358Z,16.00
2019-01-12T12:06:41.776Z,15.30
2019-01-12T12:09:46.058Z,14.40
2019-01-12T12:12:50.448Z,12.73
2019-01-12T12:15:54.698Z,16.37
2019-01-12T12:18:59.036Z,16.70
2019-01-12T12:22:03.288Z,14.13
2019-01-12T12:25:07.741Z,14.70
2019-01-12T12:28:12.027Z,16.60
2019-01-12T12:31:16.388Z,16.57
2019-01-12T12:34:20.729Z,16.30
2019-01-12T12:37:25.017Z,16.40
2019-01-12T12:40:29.346Z,16.00
2019-01-12T12:43:34.836Z,17.30
2019-01-12T12:46:39.144Z,16.17
2019-01-12T12:49:43.424Z,15.93
2019-01-12T12:52:47.756Z,15.83
2019-01-12T12:55:52.110Z,16.07
2019-01-12T12:58:56.541Z,16.30
2019-01-12T13:02:00.864Z,16.60
2019-01-12T13:05:08.822Z,16.00
2019-01-12T13:08:13.184Z,21.10
2019-01-12T13:11:17.513Z,26.97
2019-01-12T13:14:21.816Z,18.10
2019-01-12T13:17:26.174Z,17.83
2019-01-12T13:20:30.658Z,16.77
2019-01-12T13:23:35.035Z,16.70
2019-01-12T13:26:39.358Z,17.33
2019-01-12T13:29:43.718Z,15.87
2019-01-12T13:32:49.727Z,15.40
2019-01-12T13:35:54.074Z,13.60
2019-01-12T13:39:01.414Z,14.57
2019-01-12T13:42:05.708Z,14.70
2019-01-12T13:45:11.772Z,16.87
2019-01-12T13:48:16.209Z,14.87
2019-01-12T13:51:20.486Z,16.00
2019-01-12T13:54:25.886Z,13.20
2019-01-12T13:57:30.273Z,17.53
2019-01-12T14:00:36.176Z,11.70
2019-01-12T14:03:40.476Z,12.17
2019-01-12T14:06:44.961Z,13.43
2019-01-12T14:09:49.282Z,10.80
2019-01-12T14:12:53.804Z,11.83
2019-01-12T14:15:58.148Z,11.40
2019-01-12T14:19:02.446Z,12.07
2019-01-12T14:22:06.775Z,11.43
2019-01-12T14:25:11.237Z,11.60
2019-01-12T14:28:15.607Z,10.40
2019-01-12T14:31:19.933Z,9.60
2019-01-12T14:34:24.292Z,11.03
2019-01-12T14:37:28.587Z,10.57
2019-01-12T14:40:33.098Z,10.93
2019-01-12T14:43:37.441Z,10.43
2019-01-12T14:46:41.784Z,10.73
2019-01-12T14:49:46.120Z,10.87
2019-01-12T14:52:50.738Z,12.83
2019-01-12T14:55:55.063Z,12.10
2019-01-12T14:58:59.403Z,9.80
2019-01-12T15:02:03.813Z,11.90
2019-01-12T15:05:10.090Z,12.80
2019-01-12T15:08:14.536Z,11.83
2019-01-12T15:11:18.912Z,11.40
2019-01-12T15:14:23.266Z,10.20
2019-01-12T15:17:27.642Z,10.60
2019-01-12T15:20:32.158Z,10.63
2019-01-12T15:23:36.508Z,11.13
2019-01-12T15:26:40.870Z,12.70
2019-01-12T15:29:45.242Z,7.93
2019-01-12T15:32:49.518Z,8.87
2019-01-12T15:35:53.826Z,8.37
2019-01-12T15:39:01.647Z,6.00
2019-01-12T15:42:04.322Z,5.30
2019-01-12T15:45:11.336Z,4.63
2019-01-12T15:48:15.711Z,5.47
2019-01-12T15:51:20.132Z,5.80
2019-01-12T15:54:24.519Z,5.30
2019-01-12T15:57:28.842Z,5.40
2019-01-12T16:00:33.173Z,5.53
2019-01-12T16:03:37.547Z,5.67
2019-01-12T16:06:41.919Z,4.90
2019-01-12T16:09:46.246Z,4.43
2019-01-12T16:12:50.591Z,4.10
2019-01-12T16:15:54.886Z,3.23
2019-01-12T16:18:59.141Z,2.70
2019-01-12T16:22:03.581Z,2.40
2019-01-12T16:25:08.101Z,2.70
2019-01-12T16:28:12.422Z,2.63
2019-01-12T16:31:16.750Z,2.63
2019-01-12T16:34:21.068Z,3.00
2019-01-12T16:37:25.346Z,2.87
2019-01-12T16:40:29.677Z,3.30
2019-01-12T16:43:33.968Z,2.40
2019-01-12T16:46:38.261Z,2.80
2019-01-12T16:49:42.528Z,2.70
2019-01-12T16:52:48.157Z,3.60
2019-01-12T16:55:52.469Z,3.67
2019-01-12T16:58:56.707Z,3.07
2019-01-12T17:02:01.026Z,3.70
2019-01-12T17:05:06.091Z,3.83
2019-01-12T17:08:10.582Z,5.10
2019-01-12T17:11:14.905Z,3.90
2019-01-12T17:14:19.191Z,3.83
2019-01-12T17:17:23.597Z,3.50
2019-01-12T17:20:28.923Z,3.40
2019-01-12T17:23:33.279Z,3.73
2019-01-12T17:26:37.616Z,2.80
2019-01-12T17:29:42.030Z,3.67
2019-01-12T17:32:46.339Z,3.23
2019-01-12T17:35:50.665Z,3.30
2019-01-12T17:38:54.949Z,3.50
2019-01-12T17:41:59.207Z,3.20
2019-01-12T17:45:03.510Z,2.77
2019-01-12T17:48:07.831Z,3.37
2019-01-12T17:51:12.101Z,3.50
2019-01-12T17:54:16.455Z,4.23
2019-01-12T17:57:20.752Z,3.40
2019-01-12T18:00:45.834Z,4.50
2019-01-12T18:03:50.230Z,3.63
2019-01-12T18:06:54.521Z,2.77
2019-01-12T18:09:58.887Z,3.10
2019-01-12T18:13:03.197Z,3.13
2019-01-12T18:16:07.546Z,2.70
2019-01-12T18:19:11.865Z,2.70
2019-01-12T18:22:16.205Z,3.30
2019-01-12T18:25:20.591Z,2.80
2019-01-12T18:28:24.945Z,2.80
2019-01-12T18:31:29.258Z,3.37
2019-01-12T18:34:33.520Z,3.27
2019-01-12T18:37:37.801Z,3.60
2019-01-12T18:40:42.150Z,3.17
2019-01-12T18:43:46.481Z,4.30
2019-01-12T18:46:50.805Z,3.97
2019-01-12T18:49:55.159Z,3.70
2019-01-12T18:52:59.515Z,4.40
2019-01-12T18:56:03.901Z,4.20
2019-01-12T18:59:08.147Z,4.40
2019-01-12T19:02:12.469Z,3.80
2019-01-12T19:05:16.760Z,3.93
2019-01-12T19:08:21.069Z,4.27
2019-01-12T19:11:25.386Z,4.50
2019-01-12T19:14:29.723Z,5.37
2019-01-12T19:17:34.041Z,3.90
2019-01-12T19:20:38.330Z,5.30
2019-01-12T19:23:42.582Z,3.90
2019-01-12T19:26:46.910Z,4.30
2019-01-12T19:29:51.244Z,3.73
2019-01-12T19:32:55.515Z,3.60
2019-01-12T19:35:59.903Z,3.83
2019-01-12T19:39:05.756Z,3.67
2019-01-12T19:42:10.072Z,3.13
2019-01-12T19:45:15.227Z,3.20
2019-01-12T19:48:19.555Z,3.70
2019-01-12T19:51:23.885Z,3.33
2019-01-12T19:54:28.216Z,2.93
2019-01-12T19:57:32.582Z,3.23
2019-01-12T20:00:37.810Z,3.20
2019-01-12T20:03:42.177Z,3.70
2019-01-12T20:06:46.605Z,3.43
2019-01-12T20:09:50.914Z,3.67
2019-01-12T20:12:55.615Z,4.23
2019-01-12T20:15:59.951Z,3.63
2019-01-12T20:19:04.460Z,4.10
2019-01-12T20:22:08.786Z,4.00
2019-01-12T20:25:15.921Z,4.10
2019-01-12T20:28:21.481Z,3.63
2019-01-12T20:31:34.221Z,3.90
2019-01-12T20:34:46.090Z,3.90
2019-01-12T20:38:31.235Z,3.57
2019-01-12T20:41:59.433Z,3.60
2019-01-12T20:46:05.840Z,4.27
2019-01-12T20:49:15.175Z,3.60
2019-01-12T20:52:42.821Z,3.30
2019-01-12T20:56:01.414Z,3.20
2019-01-12T20:59:44.672Z,3.20
2019-01-12T21:03:04.934Z,3.30
2019-01-12T21:06:44.821Z,3.80
2019-01-12T21:10:17.310Z,3.80
2019-01-12T21:13:51.246Z,4.60
2019-01-12T21:17:04.730Z,3.20
2019-01-12T21:20:12.119Z,3.43
2019-01-12T21:23:16.415Z,3.20
2019-01-12T21:26:20.752Z,4.07
2019-01-12T21:29:25.066Z,3.10
2019-01-12T21:32:29.355Z,3.10
2019-01-12T21:35:33.724Z,3.53
2019-01-12T21:38:39.246Z,2.90
2019-01-12T21:41:43.634Z,3.50
2019-01-12T21:44:47.931Z,3.30
2019-01-12T21:47:52.331Z,3.40
2019-01-12T21:50:56.619Z,3.40
2019-01-12T21:54:03.487Z,3.40
2019-01-12T21:57:19.636Z,3.20
2019-01-12T22:00:32.091Z,2.60
2019-01-12T22:04:04.846Z,3.30
2019-01-12T22:07:13.475Z,3.00
2019-01-12T22:10:19.256Z,3.10
2019-01-12T22:13:23.756Z,2.53
2019-01-12T22:16:28.069Z,2.30
2019-01-12T22:19:32.387Z,2.40
2019-01-12T22:22:36.728Z,3.07
2019-01-12T22:25:41.012Z,2.87
2019-01-12T22:28:45.409Z,2.67
2019-01-12T22:31:49.814Z,3.10
2019-01-12T22:34:54.124Z,3.10
2019-01-12T22:37:58.620Z,3.23
2019-01-12T22:41:02.905Z,2.80
2019-01-12T22:44:07.287Z,3.27
2019-01-12T22:47:11.626Z,3.50
2019-01-12T22:50:16.170Z,3.00
2019-01-12T22:53:20.492Z,2.80
2019-01-12T22:56:24.840Z,3.00
2019-01-12T22:59:29.154Z,3.23
2019-01-12T23:02:33.458Z,2.63
2019-01-12T23:05:37.776Z,2.80
2019-01-12T23:08:42.086Z,3.00
2019-01-12T23:11:46.404Z,3.40
2019-01-12T23:14:50.705Z,3.23
2019-01-12T23:17:55.023Z,3.30
2019-01-12T23:20:59.325Z,2.83
2019-01-12T23:24:03.631Z,2.60
2019-01-12T23:27:07.959Z,2.47
2019-01-12T23:30:13.075Z,2.90
2019-01-12T23:33:17.376Z,2.70
2019-01-12T23:36:21.749Z,2.80
2019-01-12T23:39:26.074Z,2.37
2019-01-12T23:42:30.427Z,2.63
2019-01-12T23:45:34.744Z,2.60
2019-01-12T23:48:39.100Z,2.57
2019-01-12T23:51:43.399Z,2.93
2019-01-12T23:54:47.743Z,2.80
2019-01-12T23:57:52.031Z,2.70
